sensor_id;sensor_type;location;lat;lon;timestamp;P1;durP1;ratioP1;P2;durP2;ratioP2
7432;SDS011;32233;49.500;7.764;2023-04-01T00:01:09;2.87;;;0.83;;
7432;SDS011;32233;49.500;7.764;2023-04-01T00:03:38;3.23;;;0.97;;
7432;SDS011;32233;49.500;7.764;2023-04-01T00:06:05;3.87;;;0.70;;
7432;SDS011;32233;49.500;7.764;2023-04-01T00:08:32;3.13;;;0.70;;
7432;SDS011;32233;49.500;7.764;2023-04-01T00:10:58;4.00;;;0.90;;
7432;SDS011;32233;49.500;7.764;2023-04-01T00:13:25;3.53;;;0.77;;
7432;SDS011;32233;49.500;7.764;2023-04-01T00:15:53;4.90;;;1.07;;
7432;SDS011;32233;49.500;7.764;2023-04-01T00:18:21;4.10;;;1.17;;
7432;SDS011;32233;49.500;7.764;2023-04-01T00:20:50;4.63;;;0.77;;
7432;SDS011;32233;49.500;7.764;2023-04-01T00:23:18;3.67;;;0.80;;
7432;SDS011;32233;49.500;7.764;2023-04-01T00:25:46;6.53;;;0.70;;
7432;SDS011;32233;49.500;7.764;2023-04-01T00:28:15;2.80;;;0.90;;
7432;SDS011;32233;49.500;7.764;2023-04-01T00:30:42;3.17;;;1.10;;
7432;SDS011;32233;49.500;7.764;2023-04-01T00:33:09;2.83;;;0.80;;
7432;SDS011;32233;49.500;7.764;2023-04-01T00:35:37;4.70;;;0.97;;
7432;SDS011;32233;49.500;7.764;2023-04-01T00:38:05;3.53;;;0.80;;
7432;SDS011;32233;49.500;7.764;2023-04-01T00:40:37;3.30;;;0.87;;
7432;SDS011;32233;49.500;7.764;2023-04-01T00:43:09;4.03;;;0.80;;
7432;SDS011;32233;49.500;7.764;2023-04-01T00:45:40;3.40;;;0.90;;
7432;SDS011;32233;49.500;7.764;2023-04-01T00:48:16;2.47;;;0.73;;
7432;SDS011;32233;49.500;7.764;2023-04-01T00:53:34;6.33;;;0.80;;
7432;SDS011;32233;49.500;7.764;2023-04-01T00:56:05;7.07;;;1.00;;
7432;SDS011;32233;49.500;7.764;2023-04-01T00:58:38;2.60;;;0.70;;
7432;SDS011;32233;49.500;7.764;2023-04-01T01:01:08;4.07;;;0.70;;
7432;SDS011;32233;49.500;7.764;2023-04-01T01:03:36;3.43;;;0.70;;
7432;SDS011;32233;49.500;7.764;2023-04-01T01:08:37;5.00;;;0.70;;
7432;SDS011;32233;49.500;7.764;2023-04-01T01:11:29;4.47;;;0.90;;
7432;SDS011;32233;49.500;7.764;2023-04-01T01:14:17;6.97;;;0.80;;
7432;SDS011;32233;49.500;7.764;2023-04-01T01:16:54;4.27;;;0.70;;
7432;SDS011;32233;49.500;7.764;2023-04-01T01:19:36;2.73;;;0.60;;
7432;SDS011;32233;49.500;7.764;2023-04-01T01:22:22;5.33;;;0.70;;
7432;SDS011;32233;49.500;7.764;2023-04-01T01:27:43;6.50;;;1.13;;
7432;SDS011;32233;49.500;7.764;2023-04-01T01:30:20;3.83;;;0.90;;
7432;SDS011;32233;49.500;7.764;2023-04-01T01:33:04;4.57;;;0.80;;
7432;SDS011;32233;49.500;7.764;2023-04-01T01:35:54;4.70;;;0.70;;
7432;SDS011;32233;49.500;7.764;2023-04-01T01:38:26;5.77;;;1.27;;
7432;SDS011;32233;49.500;7.764;2023-04-01T01:40:59;4.03;;;0.73;;
7432;SDS011;32233;49.500;7.764;2023-04-01T01:43:30;2.50;;;0.93;;
7432;SDS011;32233;49.500;7.764;2023-04-01T01:46:02;3.93;;;0.73;;
7432;SDS011;32233;49.500;7.764;2023-04-01T01:48:34;6.63;;;1.00;;
7432;SDS011;32233;49.500;7.764;2023-04-01T01:51:03;5.37;;;0.90;;
7432;SDS011;32233;49.500;7.764;2023-04-01T01:53:31;7.27;;;1.30;;
7432;SDS011;32233;49.500;7.764;2023-04-01T01:55:58;4.77;;;0.90;;
7432;SDS011;32233;49.500;7.764;2023-04-01T01:59:08;3.77;;;0.90;;
7432;SDS011;32233;49.500;7.764;2023-04-01T02:01:24;4.43;;;1.00;;
7432;SDS011;32233;49.500;7.764;2023-04-01T02:04:03;3.33;;;0.90;;
7432;SDS011;32233;49.500;7.764;2023-04-01T02:06:32;5.23;;;1.00;;
7432;SDS011;32233;49.500;7.764;2023-04-01T02:09:02;5.03;;;0.80;;
7432;SDS011;32233;49.500;7.764;2023-04-01T02:16:53;5.57;;;0.90;;
7432;SDS011;32233;49.500;7.764;2023-04-01T02:19:27;4.20;;;0.77;;
7432;SDS011;32233;49.500;7.764;2023-04-01T02:22:00;4.57;;;0.80;;
7432;SDS011;32233;49.500;7.764;2023-04-01T02:24:30;7.13;;;1.03;;
7432;SDS011;32233;49.500;7.764;2023-04-01T02:27:00;1.30;;;0.70;;
7432;SDS011;32233;49.500;7.764;2023-04-01T02:29:28;6.90;;;1.33;;
7432;SDS011;32233;49.500;7.764;2023-04-01T02:31:54;4.40;;;0.90;;
7432;SDS011;32233;49.500;7.764;2023-04-01T02:34:22;3.90;;;0.90;;
7432;SDS011;32233;49.500;7.764;2023-04-01T02:36:50;5.03;;;1.07;;
7432;SDS011;32233;49.500;7.764;2023-04-01T02:39:17;6.60;;;1.00;;
7432;SDS011;32233;49.500;7.764;2023-04-01T02:41:44;4.83;;;0.80;;
7432;SDS011;32233;49.500;7.764;2023-04-01T02:44:12;6.67;;;0.83;;
7432;SDS011;32233;49.500;7.764;2023-04-01T02:46:41;5.23;;;0.83;;
7432;SDS011;32233;49.500;7.764;2023-04-01T02:49:08;3.37;;;0.93;;
7432;SDS011;32233;49.500;7.764;2023-04-01T02:51:35;5.90;;;1.10;;
7432;SDS011;32233;49.500;7.764;2023-04-01T02:54:01;4.53;;;1.00;;
7432;SDS011;32233;49.500;7.764;2023-04-01T02:56:28;4.97;;;0.80;;
7432;SDS011;32233;49.500;7.764;2023-04-01T02:58:55;4.47;;;0.80;;
7432;SDS011;32233;49.500;7.764;2023-04-01T03:01:21;4.63;;;0.93;;
7432;SDS011;32233;49.500;7.764;2023-04-01T03:03:48;3.63;;;0.80;;
7432;SDS011;32233;49.500;7.764;2023-04-01T03:06:15;5.53;;;1.20;;
7432;SDS011;32233;49.500;7.764;2023-04-01T03:08:43;5.70;;;0.93;;
7432;SDS011;32233;49.500;7.764;2023-04-01T03:11:10;4.90;;;0.80;;
7432;SDS011;32233;49.500;7.764;2023-04-01T03:13:38;2.73;;;0.77;;
7432;SDS011;32233;49.500;7.764;2023-04-01T03:16:04;3.23;;;0.90;;
7432;SDS011;32233;49.500;7.764;2023-04-01T03:18:34;3.97;;;0.93;;
7432;SDS011;32233;49.500;7.764;2023-04-01T03:21:17;6.47;;;0.93;;
7432;SDS011;32233;49.500;7.764;2023-04-01T03:23:48;5.03;;;1.00;;
7432;SDS011;32233;49.500;7.764;2023-04-01T03:26:15;5.40;;;1.10;;
7432;SDS011;32233;49.500;7.764;2023-04-01T03:28:42;6.47;;;1.00;;
7432;SDS011;32233;49.500;7.764;2023-04-01T03:31:09;3.67;;;0.80;;
7432;SDS011;32233;49.500;7.764;2023-04-01T03:33:43;3.90;;;0.80;;
7432;SDS011;32233;49.500;7.764;2023-04-01T03:36:09;5.77;;;1.00;;
7432;SDS011;32233;49.500;7.764;2023-04-01T03:38:39;2.87;;;1.00;;
7432;SDS011;32233;49.500;7.764;2023-04-01T03:41:06;1.37;;;0.70;;
7432;SDS011;32233;49.500;7.764;2023-04-01T03:43:33;5.17;;;0.97;;
7432;SDS011;32233;49.500;7.764;2023-04-01T03:45:59;3.23;;;0.73;;
7432;SDS011;32233;49.500;7.764;2023-04-01T03:48:27;3.40;;;0.80;;
7432;SDS011;32233;49.500;7.764;2023-04-01T03:50:53;4.00;;;0.90;;
7432;SDS011;32233;49.500;7.764;2023-04-01T03:53:20;5.40;;;1.13;;
7432;SDS011;32233;49.500;7.764;2023-04-01T03:55:47;2.73;;;0.63;;
7432;SDS011;32233;49.500;7.764;2023-04-01T03:58:14;2.90;;;0.90;;
7432;SDS011;32233;49.500;7.764;2023-04-01T04:00:41;6.33;;;0.80;;
7432;SDS011;32233;49.500;7.764;2023-04-01T04:03:08;2.33;;;0.70;;
7432;SDS011;32233;49.500;7.764;2023-04-01T04:05:35;4.80;;;1.17;;
7432;SDS011;32233;49.500;7.764;2023-04-01T04:08:02;3.73;;;1.00;;
7432;SDS011;32233;49.500;7.764;2023-04-01T04:10:30;3.30;;;0.97;;
7432;SDS011;32233;49.500;7.764;2023-04-01T04:12:56;4.13;;;1.10;;
7432;SDS011;32233;49.500;7.764;2023-04-01T04:15:27;8.73;;;1.10;;
7432;SDS011;32233;49.500;7.764;2023-04-01T04:17:54;5.43;;;1.13;;
7432;SDS011;32233;49.500;7.764;2023-04-01T04:20:21;5.77;;;1.00;;
7432;SDS011;32233;49.500;7.764;2023-04-01T04:22:48;5.63;;;1.10;;
7432;SDS011;32233;49.500;7.764;2023-04-01T04:25:14;4.60;;;0.90;;
7432;SDS011;32233;49.500;7.764;2023-04-01T04:27:41;3.97;;;0.80;;
7432;SDS011;32233;49.500;7.764;2023-04-01T04:30:10;4.40;;;1.00;;
7432;SDS011;32233;49.500;7.764;2023-04-01T04:32:37;6.47;;;0.80;;
7432;SDS011;32233;49.500;7.764;2023-04-01T04:35:04;3.47;;;1.13;;
7432;SDS011;32233;49.500;7.764;2023-04-01T04:37:33;5.77;;;0.80;;
7432;SDS011;32233;49.500;7.764;2023-04-01T04:39:59;3.23;;;0.93;;
7432;SDS011;32233;49.500;7.764;2023-04-01T04:42:27;5.73;;;0.80;;
7432;SDS011;32233;49.500;7.764;2023-04-01T04:44:59;5.90;;;0.90;;
7432;SDS011;32233;49.500;7.764;2023-04-01T04:47:26;2.87;;;0.67;;
7432;SDS011;32233;49.500;7.764;2023-04-01T04:49:53;3.67;;;0.80;;
7432;SDS011;32233;49.500;7.764;2023-04-01T04:52:19;4.70;;;0.83;;
7432;SDS011;32233;49.500;7.764;2023-04-01T04:54:46;4.50;;;0.87;;
7432;SDS011;32233;49.500;7.764;2023-04-01T04:57:12;3.73;;;0.90;;
7432;SDS011;32233;49.500;7.764;2023-04-01T04:59:46;2.63;;;0.70;;
7432;SDS011;32233;49.500;7.764;2023-04-01T05:02:23;3.33;;;0.90;;
7432;SDS011;32233;49.500;7.764;2023-04-01T05:04:50;2.40;;;0.60;;
7432;SDS011;32233;49.500;7.764;2023-04-01T05:07:17;2.47;;;0.60;;
7432;SDS011;32233;49.500;7.764;2023-04-01T05:09:43;2.33;;;0.80;;
7432;SDS011;32233;49.500;7.764;2023-04-01T05:12:12;1.37;;;0.70;;
7432;SDS011;32233;49.500;7.764;2023-04-01T05:14:54;4.90;;;0.80;;
7432;SDS011;32233;49.500;7.764;2023-04-01T05:17:21;4.17;;;0.80;;
7432;SDS011;32233;49.500;7.764;2023-04-01T05:19:48;5.10;;;0.70;;
7432;SDS011;32233;49.500;7.764;2023-04-01T05:22:14;4.13;;;0.80;;
7432;SDS011;32233;49.500;7.764;2023-04-01T05:24:42;1.20;;;0.60;;
7432;SDS011;32233;49.500;7.764;2023-04-01T05:27:11;3.50;;;0.67;;
7432;SDS011;32233;49.500;7.764;2023-04-01T05:29:39;4.20;;;0.70;;
7432;SDS011;32233;49.500;7.764;2023-04-01T05:32:11;2.30;;;0.73;;
7432;SDS011;32233;49.500;7.764;2023-04-01T05:34:38;4.93;;;0.80;;
7432;SDS011;32233;49.500;7.764;2023-04-01T05:37:05;6.40;;;0.80;;
7432;SDS011;32233;49.500;7.764;2023-04-01T05:39:36;3.43;;;0.70;;
7432;SDS011;32233;49.500;7.764;2023-04-01T05:42:07;2.43;;;0.77;;
7432;SDS011;32233;49.500;7.764;2023-04-01T05:44:35;3.50;;;0.70;;
7432;SDS011;32233;49.500;7.764;2023-04-01T05:47:02;4.50;;;0.70;;
7432;SDS011;32233;49.500;7.764;2023-04-01T05:49:30;3.80;;;0.80;;
7432;SDS011;32233;49.500;7.764;2023-04-01T05:51:57;2.40;;;0.90;;
7432;SDS011;32233;49.500;7.764;2023-04-01T05:54:24;3.90;;;0.90;;
7432;SDS011;32233;49.500;7.764;2023-04-01T05:56:51;3.53;;;0.40;;
7432;SDS011;32233;49.500;7.764;2023-04-01T05:59:18;3.27;;;0.60;;
7432;SDS011;32233;49.500;7.764;2023-04-01T06:01:45;1.83;;;0.77;;
7432;SDS011;32233;49.500;7.764;2023-04-01T06:04:13;2.47;;;0.70;;
7432;SDS011;32233;49.500;7.764;2023-04-01T06:06:42;3.63;;;0.67;;
7432;SDS011;32233;49.500;7.764;2023-04-01T06:09:15;3.10;;;0.70;;
7432;SDS011;32233;49.500;7.764;2023-04-01T06:11:54;2.47;;;0.60;;
7432;SDS011;32233;49.500;7.764;2023-04-01T06:14:46;4.27;;;0.90;;
7432;SDS011;32233;49.500;7.764;2023-04-01T06:50:44;2.73;;;0.87;;
7432;SDS011;32233;49.500;7.764;2023-04-01T06:53:43;1.90;;;0.70;;
7432;SDS011;32233;49.500;7.764;2023-04-01T06:56:34;1.53;;;0.63;;
7432;SDS011;32233;49.500;7.764;2023-04-01T07:05:07;2.70;;;0.57;;
7432;SDS011;32233;49.500;7.764;2023-04-01T07:07:45;1.07;;;0.47;;
7432;SDS011;32233;49.500;7.764;2023-04-01T07:10:41;2.30;;;0.60;;
7432;SDS011;32233;49.500;7.764;2023-04-01T07:13:49;2.57;;;0.60;;
7432;SDS011;32233;49.500;7.764;2023-04-01T07:16:30;0.67;;;0.50;;
7432;SDS011;32233;49.500;7.764;2023-04-01T07:22:20;0.63;;;0.40;;
7432;SDS011;32233;49.500;7.764;2023-04-01T07:25:25;1.20;;;0.40;;
7432;SDS011;32233;49.500;7.764;2023-04-01T07:28:19;0.90;;;0.40;;
7432;SDS011;32233;49.500;7.764;2023-04-01T07:31:01;2.53;;;0.50;;
7432;SDS011;32233;49.500;7.764;2023-04-01T07:36:53;0.50;;;0.50;;
7432;SDS011;32233;49.500;7.764;2023-04-01T07:39:37;1.00;;;0.40;;
7432;SDS011;32233;49.500;7.764;2023-04-01T07:42:44;1.40;;;0.40;;
7432;SDS011;32233;49.500;7.764;2023-04-01T07:48:19;0.87;;;0.37;;
7432;SDS011;32233;49.500;7.764;2023-04-01T07:53:30;1.30;;;0.40;;
7432;SDS011;32233;49.500;7.764;2023-04-01T07:59:17;0.27;;;0.27;;
7432;SDS011;32233;49.500;7.764;2023-04-01T08:05:08;0.67;;;0.40;;
7432;SDS011;32233;49.500;7.764;2023-04-01T08:07:54;1.00;;;0.37;;
7432;SDS011;32233;49.500;7.764;2023-04-01T08:11:04;0.40;;;0.30;;
7432;SDS011;32233;49.500;7.764;2023-04-01T08:17:14;1.23;;;0.40;;
7432;SDS011;32233;49.500;7.764;2023-04-01T08:19:53;0.90;;;0.20;;
7432;SDS011;32233;49.500;7.764;2023-04-01T08:22:32;0.30;;;0.30;;
7432;SDS011;32233;49.500;7.764;2023-04-01T08:25:22;0.40;;;0.30;;
7432;SDS011;32233;49.500;7.764;2023-04-01T08:27:55;0.63;;;0.23;;
7432;SDS011;32233;49.500;7.764;2023-04-01T08:30:38;0.53;;;0.30;;
7432;SDS011;32233;49.500;7.764;2023-04-01T08:33:14;1.30;;;0.37;;
7432;SDS011;32233;49.500;7.764;2023-04-01T08:35:51;0.30;;;0.30;;
7432;SDS011;32233;49.500;7.764;2023-04-01T08:49:50;0.83;;;0.33;;
7432;SDS011;32233;49.500;7.764;2023-04-01T09:15:54;0.40;;;0.30;;
7432;SDS011;32233;49.500;7.764;2023-04-01T09:18:48;0.40;;;0.30;;
7432;SDS011;32233;49.500;7.764;2023-04-01T09:21:24;1.03;;;0.20;;
7432;SDS011;32233;49.500;7.764;2023-04-01T09:26:48;0.50;;;0.40;;
7432;SDS011;32233;49.500;7.764;2023-04-01T09:29:38;0.30;;;0.30;;
7432;SDS011;32233;49.500;7.764;2023-04-01T09:32:26;0.20;;;0.20;;
7432;SDS011;32233;49.500;7.764;2023-04-01T09:38:29;0.30;;;0.30;;
7432;SDS011;32233;49.500;7.764;2023-04-01T09:41:25;1.27;;;0.40;;
7432;SDS011;32233;49.500;7.764;2023-04-01T09:47:05;0.57;;;0.40;;
7432;SDS011;32233;49.500;7.764;2023-04-01T09:53:17;0.50;;;0.50;;
7432;SDS011;32233;49.500;7.764;2023-04-01T10:04:57;0.87;;;0.57;;
7432;SDS011;32233;49.500;7.764;2023-04-01T10:13:06;0.20;;;0.20;;
7432;SDS011;32233;49.500;7.764;2023-04-01T10:16:09;0.47;;;0.20;;
7432;SDS011;32233;49.500;7.764;2023-04-01T10:27:21;1.37;;;0.40;;
7432;SDS011;32233;49.500;7.764;2023-04-01T10:30:05;0.30;;;0.30;;
7432;SDS011;32233;49.500;7.764;2023-04-01T10:33:10;0.50;;;0.30;;
7432;SDS011;32233;49.500;7.764;2023-04-01T10:38:46;0.80;;;0.20;;
7432;SDS011;32233;49.500;7.764;2023-04-01T10:41:40;0.20;;;0.20;;
7432;SDS011;32233;49.500;7.764;2023-04-01T11:06:03;0.77;;;0.40;;
7432;SDS011;32233;49.500;7.764;2023-04-01T11:15:10;0.43;;;0.33;;
7432;SDS011;32233;49.500;7.764;2023-04-01T11:18:08;0.33;;;0.33;;
7432;SDS011;32233;49.500;7.764;2023-04-01T11:26:55;0.20;;;0.20;;
7432;SDS011;32233;49.500;7.764;2023-04-01T11:29:53;1.03;;;0.20;;
7432;SDS011;32233;49.500;7.764;2023-04-01T11:32:46;0.63;;;0.20;;
7432;SDS011;32233;49.500;7.764;2023-04-01T11:44:24;1.27;;;0.30;;
7432;SDS011;32233;49.500;7.764;2023-04-01T11:50:12;0.80;;;0.40;;
7432;SDS011;32233;49.500;7.764;2023-04-01T11:53:00;0.50;;;0.30;;
7432;SDS011;32233;49.500;7.764;2023-04-01T11:55:31;0.60;;;0.40;;
7432;SDS011;32233;49.500;7.764;2023-04-01T11:58:51;0.23;;;0.20;;
7432;SDS011;32233;49.500;7.764;2023-04-01T12:01:20;0.30;;;0.30;;
7432;SDS011;32233;49.500;7.764;2023-04-01T12:09:22;0.20;;;0.20;;
7432;SDS011;32233;49.500;7.764;2023-04-01T12:17:34;0.73;;;0.30;;
7432;SDS011;32233;49.500;7.764;2023-04-01T12:33:40;0.40;;;0.40;;
7432;SDS011;32233;49.500;7.764;2023-04-01T12:36:18;1.63;;;0.40;;
7432;SDS011;32233;49.500;7.764;2023-04-01T12:39:07;0.77;;;0.30;;
7432;SDS011;32233;49.500;7.764;2023-04-01T12:41:53;0.63;;;0.40;;
7432;SDS011;32233;49.500;7.764;2023-04-01T12:56:22;0.70;;;0.40;;
7432;SDS011;32233;49.500;7.764;2023-04-01T13:05:39;0.50;;;0.37;;
7432;SDS011;32233;49.500;7.764;2023-04-01T13:11:20;0.93;;;0.40;;
7432;SDS011;32233;49.500;7.764;2023-04-01T13:14:25;1.60;;;0.77;;
7432;SDS011;32233;49.500;7.764;2023-04-01T13:17:21;0.83;;;0.50;;
7432;SDS011;32233;49.500;7.764;2023-04-01T13:20:02;0.97;;;0.60;;
7432;SDS011;32233;49.500;7.764;2023-04-01T13:28:20;0.50;;;0.40;;
7432;SDS011;32233;49.500;7.764;2023-04-01T13:33:31;1.53;;;0.47;;
7432;SDS011;32233;49.500;7.764;2023-04-01T13:36:17;1.83;;;0.50;;
7432;SDS011;32233;49.500;7.764;2023-04-01T13:44:17;1.10;;;0.50;;
7432;SDS011;32233;49.500;7.764;2023-04-01T13:47:10;0.93;;;0.60;;
7432;SDS011;32233;49.500;7.764;2023-04-01T13:50:03;0.63;;;0.63;;
7432;SDS011;32233;49.500;7.764;2023-04-01T14:03:30;0.90;;;0.40;;
7432;SDS011;32233;49.500;7.764;2023-04-01T14:12:04;1.17;;;0.77;;
7432;SDS011;32233;49.500;7.764;2023-04-01T14:20:19;0.60;;;0.50;;
7432;SDS011;32233;49.500;7.764;2023-04-01T14:29:16;0.67;;;0.57;;
7432;SDS011;32233;49.500;7.764;2023-04-01T14:35:05;0.53;;;0.47;;
7432;SDS011;32233;49.500;7.764;2023-04-01T14:40:34;0.70;;;0.43;;
7432;SDS011;32233;49.500;7.764;2023-04-01T14:46:52;0.77;;;0.43;;
7432;SDS011;32233;49.500;7.764;2023-04-01T14:49:02;0.60;;;0.50;;
7432;SDS011;32233;49.500;7.764;2023-04-01T14:51:39;0.60;;;0.40;;
7432;SDS011;32233;49.500;7.764;2023-04-01T14:59:09;0.70;;;0.43;;
7432;SDS011;32233;49.500;7.764;2023-04-01T15:05:06;1.17;;;0.53;;
7432;SDS011;32233;49.500;7.764;2023-04-01T15:13:51;1.17;;;0.50;;
7432;SDS011;32233;49.500;7.764;2023-04-01T15:35:49;0.50;;;0.40;;
7432;SDS011;32233;49.500;7.764;2023-04-01T15:38:24;0.97;;;0.40;;
7432;SDS011;32233;49.500;7.764;2023-04-01T15:41:03;0.80;;;0.40;;
7432;SDS011;32233;49.500;7.764;2023-04-01T15:52:02;0.73;;;0.50;;
7432;SDS011;32233;49.500;7.764;2023-04-01T15:54:32;1.47;;;0.70;;
7432;SDS011;32233;49.500;7.764;2023-04-01T16:02:51;0.57;;;0.40;;
7432;SDS011;32233;49.500;7.764;2023-04-01T16:05:33;0.97;;;0.30;;
7432;SDS011;32233;49.500;7.764;2023-04-01T16:10:49;1.07;;;0.40;;
7432;SDS011;32233;49.500;7.764;2023-04-01T16:13:46;2.13;;;0.50;;
7432;SDS011;32233;49.500;7.764;2023-04-01T16:16:19;0.53;;;0.47;;
7432;SDS011;32233;49.500;7.764;2023-04-01T16:24:24;0.40;;;0.40;;
7432;SDS011;32233;49.500;7.764;2023-04-01T16:27:02;0.60;;;0.40;;
7432;SDS011;32233;49.500;7.764;2023-04-01T16:29:40;0.73;;;0.40;;
7432;SDS011;32233;49.500;7.764;2023-04-01T16:32:41;1.07;;;0.40;;
7432;SDS011;32233;49.500;7.764;2023-04-01T16:38:25;0.77;;;0.50;;
7432;SDS011;32233;49.500;7.764;2023-04-01T16:49:04;1.30;;;0.50;;
7432;SDS011;32233;49.500;7.764;2023-04-01T16:51:46;0.60;;;0.50;;
7432;SDS011;32233;49.500;7.764;2023-04-01T16:54:36;1.53;;;0.50;;
7432;SDS011;32233;49.500;7.764;2023-04-01T16:57:21;1.47;;;0.60;;
7432;SDS011;32233;49.500;7.764;2023-04-01T17:00:02;0.60;;;0.60;;
7432;SDS011;32233;49.500;7.764;2023-04-01T17:02:47;0.90;;;0.40;;
7432;SDS011;32233;49.500;7.764;2023-04-01T17:05:18;1.00;;;0.40;;
7432;SDS011;32233;49.500;7.764;2023-04-01T17:08:22;1.37;;;0.40;;
7432;SDS011;32233;49.500;7.764;2023-04-01T17:11:16;0.73;;;0.40;;
7432;SDS011;32233;49.500;7.764;2023-04-01T17:13:52;0.77;;;0.50;;
7432;SDS011;32233;49.500;7.764;2023-04-01T17:16:28;0.50;;;0.40;;
7432;SDS011;32233;49.500;7.764;2023-04-01T17:30:23;0.67;;;0.40;;
7432;SDS011;32233;49.500;7.764;2023-04-01T17:35:56;0.73;;;0.60;;
7432;SDS011;32233;49.500;7.764;2023-04-01T17:41:36;0.50;;;0.50;;
7432;SDS011;32233;49.500;7.764;2023-04-01T17:50:02;2.00;;;0.70;;
7432;SDS011;32233;49.500;7.764;2023-04-01T17:52:47;1.50;;;0.63;;
7432;SDS011;32233;49.500;7.764;2023-04-01T18:06:29;1.23;;;0.63;;
7432;SDS011;32233;49.500;7.764;2023-04-01T18:09:46;2.03;;;0.90;;
7432;SDS011;32233;49.500;7.764;2023-04-01T18:19:55;0.80;;;0.80;;
7432;SDS011;32233;49.500;7.764;2023-04-01T18:22:41;0.67;;;0.67;;
7432;SDS011;32233;49.500;7.764;2023-04-01T18:25:28;1.40;;;0.60;;
7432;SDS011;32233;49.500;7.764;2023-04-01T18:33:34;1.07;;;0.70;;
7432;SDS011;32233;49.500;7.764;2023-04-01T18:38:57;1.33;;;0.70;;
7432;SDS011;32233;49.500;7.764;2023-04-01T18:41:34;0.70;;;0.60;;
7432;SDS011;32233;49.500;7.764;2023-04-01T18:44:16;1.63;;;1.00;;
7432;SDS011;32233;49.500;7.764;2023-04-01T18:49:41;1.30;;;0.70;;
7432;SDS011;32233;49.500;7.764;2023-04-01T18:52:13;0.80;;;0.80;;
7432;SDS011;32233;49.500;7.764;2023-04-01T19:02:55;3.57;;;2.80;;
7432;SDS011;32233;49.500;7.764;2023-04-01T19:05:30;1.57;;;1.10;;
7432;SDS011;32233;49.500;7.764;2023-04-01T19:08:13;1.87;;;1.43;;
7432;SDS011;32233;49.500;7.764;2023-04-01T19:32:22;2.80;;;0.90;;
7432;SDS011;32233;49.500;7.764;2023-04-01T19:37:40;1.03;;;0.90;;
7432;SDS011;32233;49.500;7.764;2023-04-01T19:40:25;5.90;;;5.50;;
7432;SDS011;32233;49.500;7.764;2023-04-01T19:45:54;3.47;;;2.10;;
7432;SDS011;32233;49.500;7.764;2023-04-01T19:53:56;1.80;;;1.33;;
7432;SDS011;32233;49.500;7.764;2023-04-01T19:56:36;1.30;;;1.20;;
7432;SDS011;32233;49.500;7.764;2023-04-01T20:12:45;2.17;;;1.10;;
7432;SDS011;32233;49.500;7.764;2023-04-01T20:18:03;1.37;;;1.27;;
7432;SDS011;32233;49.500;7.764;2023-04-01T20:20:38;1.10;;;1.00;;
7432;SDS011;32233;49.500;7.764;2023-04-01T20:23:16;1.83;;;1.40;;
7432;SDS011;32233;49.500;7.764;2023-04-01T20:26:02;2.10;;;1.23;;
7432;SDS011;32233;49.500;7.764;2023-04-01T20:28:36;1.37;;;1.20;;
7432;SDS011;32233;49.500;7.764;2023-04-01T20:33:53;1.20;;;1.10;;
7432;SDS011;32233;49.500;7.764;2023-04-01T20:36:41;1.93;;;1.03;;
7432;SDS011;32233;49.500;7.764;2023-04-01T20:39:39;1.10;;;1.03;;
7432;SDS011;32233;49.500;7.764;2023-04-01T20:48:18;1.03;;;1.03;;
7432;SDS011;32233;49.500;7.764;2023-04-01T20:50:57;1.73;;;1.13;;
7432;SDS011;32233;49.500;7.764;2023-04-01T20:53:30;1.83;;;1.20;;
7432;SDS011;32233;49.500;7.764;2023-04-01T21:10:20;3.47;;;1.17;;
7432;SDS011;32233;49.500;7.764;2023-04-01T21:12:56;1.60;;;1.50;;
7432;SDS011;32233;49.500;7.764;2023-04-01T21:15:58;1.57;;;1.37;;
7432;SDS011;32233;49.500;7.764;2023-04-01T21:24:37;2.13;;;2.03;;
7432;SDS011;32233;49.500;7.764;2023-04-01T21:27:13;1.80;;;1.70;;
7432;SDS011;32233;49.500;7.764;2023-04-01T21:35:54;3.17;;;2.93;;
7432;SDS011;32233;49.500;7.764;2023-04-01T21:38:39;3.93;;;2.90;;
7432;SDS011;32233;49.500;7.764;2023-04-01T21:49:43;3.70;;;2.07;;
7432;SDS011;32233;49.500;7.764;2023-04-01T21:58:39;1.87;;;1.77;;
7432;SDS011;32233;49.500;7.764;2023-04-01T22:12:49;1.70;;;1.60;;
7432;SDS011;32233;49.500;7.764;2023-04-01T22:18:31;1.90;;;1.60;;
7432;SDS011;32233;49.500;7.764;2023-04-01T22:21:24;2.33;;;1.40;;
7432;SDS011;32233;49.500;7.764;2023-04-01T22:24:10;1.50;;;1.40;;
7432;SDS011;32233;49.500;7.764;2023-04-01T22:32:48;1.73;;;1.60;;
7432;SDS011;32233;49.500;7.764;2023-04-01T22:35:30;1.77;;;1.40;;
7432;SDS011;32233;49.500;7.764;2023-04-01T22:43:41;2.83;;;1.23;;
7432;SDS011;32233;49.500;7.764;2023-04-01T22:46:26;1.47;;;1.20;;
7432;SDS011;32233;49.500;7.764;2023-04-01T22:49:20;1.30;;;1.10;;
7432;SDS011;32233;49.500;7.764;2023-04-01T22:52:17;1.77;;;1.20;;
7432;SDS011;32233;49.500;7.764;2023-04-01T22:54:56;1.03;;;0.80;;
7432;SDS011;32233;49.500;7.764;2023-04-01T23:00:12;0.90;;;0.70;;
7432;SDS011;32233;49.500;7.764;2023-04-01T23:02:59;0.83;;;0.83;;
7432;SDS011;32233;49.500;7.764;2023-04-01T23:05:31;1.07;;;0.90;;
7432;SDS011;32233;49.500;7.764;2023-04-01T23:11:00;1.73;;;1.00;;
7432;SDS011;32233;49.500;7.764;2023-04-01T23:14:16;1.00;;;1.00;;
7432;SDS011;32233;49.500;7.764;2023-04-01T23:16:31;1.97;;;1.37;;
7432;SDS011;32233;49.500;7.764;2023-04-01T23:19:09;1.47;;;1.20;;
7432;SDS011;32233;49.500;7.764;2023-04-01T23:21:44;2.57;;;1.47;;
7432;SDS011;32233;49.500;7.764;2023-04-01T23:26:59;2.00;;;1.50;;
7432;SDS011;32233;49.500;7.764;2023-04-01T23:29:33;1.60;;;1.50;;
7432;SDS011;32233;49.500;7.764;2023-04-01T23:32:03;5.10;;;2.70;;
7432;SDS011;32233;49.500;7.764;2023-04-01T23:34:30;1.90;;;1.70;;
7432;SDS011;32233;49.500;7.764;2023-04-01T23:37:12;3.37;;;1.40;;
7432;SDS011;32233;49.500;7.764;2023-04-01T23:39:45;6.87;;;4.27;;
7432;SDS011;32233;49.500;7.764;2023-04-01T23:42:17;2.37;;;1.67;;
7432;SDS011;32233;49.500;7.764;2023-04-01T23:44:48;1.20;;;1.10;;
7432;SDS011;32233;49.500;7.764;2023-04-01T23:47:24;2.80;;;1.10;;
7432;SDS011;32233;49.500;7.764;2023-04-01T23:49:55;2.47;;;1.20;;
7432;SDS011;32233;49.500;7.764;2023-04-01T23:52:28;1.70;;;1.20;;
7432;SDS011;32233;49.500;7.764;2023-04-01T23:55:31;1.57;;;1.00;;
